Route Details

Aircraft Information
Group: European Fleet
Types: A30F, A31F, B738
Route Data
Distance: 281nm
Duration: 1h 00m
Origin METAR: EDDK 080120Z AUTO VRB02KT CAVOK M01/M06 Q1039
Dest. METAR: LSGG 080120Z AUTO 04007KT 9999 BKN019 01/M03 Q1032 NOSIG
Freight Data
(for Feb 8, 2023)
Load Factor:
49%
Manifested Cargo: 28,307lbs
Financial History
Total Freight: 420,506lbs
Average Load: 0lbs/flt
Fuel Used: 84,093lbs
Avg. Fuel Used: 0lbs/flt
Fuel Expense: $39,012
Avg. Fuel Expense: $0
Avg. Fuel Cost: $0/lbs
Total Gross Income: $926,860
Pilot Pay: $1,892
Total Expenses: $162,319
Total Revenue: $722,448
Average Revenue: $0

Capitol Logistics 505




EDDK
Cologne Bonn Airport
Cologne, DE
LSGG
Geneve-Cointrin Airport
Geneva, CH